Time,TemperatureF,DewpointF,PressureIn,WindDirection,WindDirectionDegrees,WindSpeedMPH,WindSpeedGustMPH,Humidity,HourlyPrecipIn,Conditions,Clouds,dailyrainin,SoftwareType,DateUTC
2013-08-15 00:08:00,50.5,48.6,29.99,South,180,0.0,-999.0,93,-99.99,,,0.00,Acu-Link.com,2013-08-15 04:08:00,
2013-08-15 00:23:00,50.2,48.3,29.99,East,90,0.0,-999.0,93,-99.99,,,0.00,Acu-Link.com,2013-08-15 04:23:00,
2013-08-15 00:38:00,50.0,48.1,30.00,North,0,0.0,-999.0,93,-99.99,,,0.00,Acu-Link.com,2013-08-15 04:38:00,
2013-08-15 00:54:00,49.3,47.4,30.00,WSW,247,0.0,-999.0,93,-99.99,,,0.00,Acu-Link.com,2013-08-15 04:54:00,
2013-08-15 01:09:00,49.1,47.2,30.00,East,90,0.0,-999.0,93,-99.99,,,0.00,Acu-Link.com,2013-08-15 05:09:00,
2013-08-15 01:24:00,48.7,47.1,30.00,ESE,112,0.0,-999.0,94,-99.99,,,0.00,Acu-Link.com,2013-08-15 05:24:00,
2013-08-15 01:40:00,48.2,46.6,30.01,West,270,0.0,-999.0,94,-99.99,,,0.00,Acu-Link.com,2013-08-15 05:40:00,
2013-08-15 01:55:00,48.4,46.8,30.01,ESE,112,0.0,-999.0,94,-99.99,,,0.00,Acu-Link.com,2013-08-15 05:55:00,
2013-08-15 02:10:00,47.5,45.9,30.01,East,90,0.0,-999.0,94,-99.99,,,0.00,Acu-Link.com,2013-08-15 06:10:00,
2013-08-15 02:26:00,47.3,45.7,30.01,South,180,0.0,-999.0,94,-99.99,,,0.00,Acu-Link.com,2013-08-15 06:26:00,
2013-08-15 02:41:00,47.5,45.9,30.02,SSW,202,0.0,-999.0,94,-99.99,,,0.00,Acu-Link.com,2013-08-15 06:41:00,
2013-08-15 02:56:00,47.3,45.7,30.03,ESE,112,0.0,-999.0,94,-99.99,,,0.00,Acu-Link.com,2013-08-15 06:56:00,
2013-08-15 03:12:00,47.3,45.7,30.02,NE,45,0.0,-999.0,94,-99.99,,,0.00,Acu-Link.com,2013-08-15 07:12:00,
2013-08-15 03:27:00,47.5,45.9,30.03,NE,45,1.7,-999.0,94,-99.99,,,0.00,Acu-Link.com,2013-08-15 07:27:00,
2013-08-15 03:42:00,47.7,46.3,30.03,NNE,22,0.0,-999.0,95,-99.99,,,0.00,Acu-Link.com,2013-08-15 07:42:00,
2013-08-15 03:58:00,47.3,45.9,30.03,ENE,67,0.0,-999.0,95,-99.99,,,0.00,Acu-Link.com,2013-08-15 07:58:00,
2013-08-15 04:16:00,47.1,45.7,30.04,NE,45,1.7,-999.0,95,-99.99,,,0.00,Acu-Link.com,2013-08-15 08:16:00,
2013-08-15 04:31:00,47.1,45.7,30.04,ESE,112,0.0,-999.0,95,-99.99,,,0.00,Acu-Link.com,2013-08-15 08:31:00,
2013-08-15 04:46:00,46.9,45.5,30.04,East,90,0.0,-999.0,95,-99.99,,,0.00,Acu-Link.com,2013-08-15 08:46:00,
2013-08-15 05:01:00,46.6,45.2,30.04,NE,45,0.0,-999.0,95,-99.99,,,0.00,Acu-Link.com,2013-08-15 09:01:00,
2013-08-15 05:16:00,45.7,44.4,30.05,West,270,0.0,-999.0,95,-99.99,,,0.00,Acu-Link.com,2013-08-15 09:16:00,
2013-08-15 05:31:00,45.5,44.2,30.06,SSW,202,0.0,-999.0,95,-99.99,,,0.00,Acu-Link.com,2013-08-15 09:31:00,
2013-08-15 05:47:00,45.1,43.8,30.06,ESE,112,1.1,-999.0,95,-99.99,,,0.00,Acu-Link.com,2013-08-15 09:47:00,
2013-08-15 06:02:00,45.3,44.0,30.06,SSE,157,0.0,-999.0,95,-99.99,,,0.00,Acu-Link.com,2013-08-15 10:02:00,
2013-08-15 06:17:00,45.5,44.2,30.07,East,90,1.7,-999.0,95,-99.99,,,0.00,Acu-Link.com,2013-08-15 10:17:00,
2013-08-15 06:32:00,45.7,44.4,30.07,SE,135,0.0,-999.0,95,-99.99,,,0.00,Acu-Link.com,2013-08-15 10:32:00,
2013-08-15 06:48:00,46.4,45.0,30.08,NNW,337,0.0,-999.0,95,-99.99,,,0.00,Acu-Link.com,2013-08-15 10:48:00,
2013-08-15 07:03:00,49.6,48.2,30.08,SSE,157,2.7,-999.0,95,-99.99,,,0.00,Acu-Link.com,2013-08-15 11:03:00,
2013-08-15 07:19:00,52.5,50.8,30.08,SSE,157,2.2,-999.0,94,-99.99,,,0.00,Acu-Link.com,2013-08-15 11:19:00,
2013-08-15 07:34:00,54.3,50.8,30.08,NE,45,2.7,-999.0,88,-99.99,,,0.00,Acu-Link.com,2013-08-15 11:34:00,
2013-08-15 07:49:00,56.8,52.3,30.08,NE,45,1.7,-999.0,85,-99.99,,,0.00,Acu-Link.com,2013-08-15 11:49:00,
2013-08-15 08:05:00,59.0,53.5,30.09,South,180,1.1,-999.0,82,-99.99,,,0.00,Acu-Link.com,2013-08-15 12:05:00,
2013-08-15 08:20:00,60.8,53.5,30.08,ESE,112,0.0,-999.0,77,-99.99,,,0.00,Acu-Link.com,2013-08-15 12:20:00,
2013-08-15 08:35:00,60.6,53.3,30.09,SSE,157,1.1,-999.0,77,-99.99,,,0.00,Acu-Link.com,2013-08-15 12:35:00,
2013-08-15 08:50:00,58.6,52.8,30.09,SSW,202,1.1,-999.0,81,-99.99,,,0.00,Acu-Link.com,2013-08-15 12:50:00,
2013-08-15 09:05:00,59.5,53.0,30.09,West,270,2.2,-999.0,79,-99.99,,,0.00,Acu-Link.com,2013-08-15 13:05:00,
2013-08-15 09:21:00,61.9,53.5,30.08,WSW,247,2.7,-999.0,74,-99.99,,,0.00,Acu-Link.com,2013-08-15 13:21:00,
2013-08-15 09:36:00,64.2,54.6,30.08,ESE,112,1.7,-999.0,71,-99.99,,,0.00,Acu-Link.com,2013-08-15 13:36:00,
2013-08-15 09:51:00,64.9,55.3,30.09,ENE,67,2.2,-999.0,71,-99.99,,,0.00,Acu-Link.com,2013-08-15 13:51:00,
2013-08-15 10:07:00,64.9,54.5,30.10,ESE,112,1.1,-999.0,69,-99.99,,,0.00,Acu-Link.com,2013-08-15 14:07:00,
2013-08-15 10:22:00,67.3,54.3,30.09,West,270,2.7,-999.0,63,-99.99,,,0.00,Acu-Link.com,2013-08-15 14:22:00,
2013-08-15 10:37:00,66.7,54.1,30.09,NE,45,4.2,-999.0,64,-99.99,,,0.00,Acu-Link.com,2013-08-15 14:37:00,
2013-08-15 11:08:00,70.5,53.0,30.08,NW,315,2.7,-999.0,54,-99.99,,,0.00,Acu-Link.com,2013-08-15 15:08:00,
2013-08-15 11:23:00,71.2,53.7,30.08,West,270,4.7,-999.0,54,-99.99,,,0.00,Acu-Link.com,2013-08-15 15:23:00,
2013-08-15 11:39:00,71.1,53.1,30.09,NNE,22,3.7,-999.0,53,-99.99,,,0.00,Acu-Link.com,2013-08-15 15:39:00,
2013-08-15 11:54:00,71.6,54.1,30.07,SSE,157,2.2,-999.0,54,-99.99,,,0.00,Acu-Link.com,2013-08-15 15:54:00,
2013-08-15 12:09:00,73.9,50.6,30.07,NE,45,3.7,-999.0,44,-99.99,,,0.00,Acu-Link.com,2013-08-15 16:09:00,
2013-08-15 12:25:00,74.8,52.6,30.06,NNW,337,4.7,-999.0,46,-99.99,,,0.00,Acu-Link.com,2013-08-15 16:25:00,
2013-08-15 12:40:00,73.4,51.3,30.06,East,90,2.7,-999.0,46,-99.99,,,0.00,Acu-Link.com,2013-08-15 16:40:00,
2013-08-15 12:55:00,75.2,51.8,30.04,West,270,3.7,-999.0,44,-99.99,,,0.00,Acu-Link.com,2013-08-15 16:55:00,
2013-08-15 13:10:00,75.0,51.6,30.04,East,90,1.1,-999.0,44,-99.99,,,0.00,Acu-Link.com,2013-08-15 17:10:00,
2013-08-15 13:41:00,76.3,50.9,30.04,SSW,202,2.2,-999.0,41,-99.99,,,0.00,Acu-Link.com,2013-08-15 17:41:00,
2013-08-15 13:56:00,72.9,49.7,30.04,SSE,157,0.0,-999.0,44,-99.99,,,0.00,Acu-Link.com,2013-08-15 17:56:00,
2013-08-15 14:11:00,74.5,51.1,30.03,NNW,337,3.2,-999.0,44,-99.99,,,0.00,Acu-Link.com,2013-08-15 18:11:00,
2013-08-15 14:42:00,76.1,49.3,30.03,NE,45,6.8,-999.0,39,-99.99,,,0.00,Acu-Link.com,2013-08-15 18:42:00,
2013-08-15 15:12:00,77.5,51.3,30.01,NNW,337,2.7,-999.0,40,-99.99,,,0.00,Acu-Link.com,2013-08-15 19:12:00,
2013-08-15 15:28:00,75.7,51.0,30.01,SW,225,1.1,-999.0,42,-99.99,,,0.00,Acu-Link.com,2013-08-15 19:28:00,
2013-08-15 15:58:00,76.8,52.0,30.01,WSW,247,1.7,-999.0,42,-99.99,,,0.00,Acu-Link.com,2013-08-15 19:58:00,
2013-08-15 16:14:00,74.8,50.2,30.00,NNE,22,1.1,-999.0,42,-99.99,,,0.00,Acu-Link.com,2013-08-15 20:14:00,
2013-08-15 16:29:00,76.5,52.3,30.00,WSW,247,1.7,-999.0,43,-99.99,,,0.00,Acu-Link.com,2013-08-15 20:29:00,
2013-08-15 16:44:00,77.2,51.7,30.00,SSW,202,2.2,-999.0,41,-99.99,,,0.00,Acu-Link.com,2013-08-15 20:44:00,
2013-08-15 16:59:00,78.4,51.4,29.99,West,270,6.8,-999.0,39,-99.99,,,0.00,Acu-Link.com,2013-08-15 20:59:00,
2013-08-15 17:30:00,79.7,51.8,29.98,WSW,247,0.0,-999.0,38,-99.99,,,0.00,Acu-Link.com,2013-08-15 21:30:00,
2013-08-15 17:45:00,76.6,51.8,29.98,West,270,1.7,-999.0,42,-99.99,,,0.00,Acu-Link.com,2013-08-15 21:45:00,
2013-08-15 18:16:00,74.8,49.5,29.99,WSW,247,1.1,-999.0,41,-99.99,,,0.00,Acu-Link.com,2013-08-15 22:16:00,
2013-08-15 18:31:00,74.5,49.2,29.97,West,270,2.2,-999.0,41,-99.99,,,0.00,Acu-Link.com,2013-08-15 22:31:00,
2013-08-15 18:48:00,74.3,49.7,29.97,West,270,2.2,-999.0,42,-99.99,,,0.00,Acu-Link.com,2013-08-15 22:48:00,
2013-08-15 19:18:00,73.0,52.7,29.99,West,270,3.7,-999.0,49,-99.99,,,0.00,Acu-Link.com,2013-08-15 23:18:00,
2013-08-15 19:34:00,71.6,53.6,29.98,SSW,202,0.0,-999.0,53,-99.99,,,0.00,Acu-Link.com,2013-08-15 23:34:00,
2013-08-15 19:49:00,68.4,55.7,30.00,SSE,157,0.0,-999.0,64,-99.99,,,0.00,Acu-Link.com,2013-08-15 23:49:00,
2013-08-15 20:19:00,64.2,56.1,30.00,East,90,0.0,-999.0,75,-99.99,,,0.00,Acu-Link.com,2013-08-16 00:19:00,
2013-08-15 20:35:00,62.8,55.5,30.00,South,180,0.0,-999.0,77,-99.99,,,0.00,Acu-Link.com,2013-08-16 00:35:00,
2013-08-15 20:50:00,61.3,54.7,30.01,SSW,202,0.0,-999.0,79,-99.99,,,0.00,Acu-Link.com,2013-08-16 00:50:00,
2013-08-15 21:05:00,60.3,55.8,30.01,East,90,0.0,-999.0,85,-99.99,,,0.00,Acu-Link.com,2013-08-16 01:05:00,
2013-08-15 21:21:00,59.4,55.5,30.01,SSE,157,0.0,-999.0,87,-99.99,,,0.00,Acu-Link.com,2013-08-16 01:21:00,
2013-08-15 21:51:00,57.7,54.5,30.02,NNE,22,0.0,-999.0,89,-99.99,,,0.00,Acu-Link.com,2013-08-16 01:51:00,
2013-08-15 22:07:00,57.0,54.4,30.02,SSE,157,0.0,-999.0,91,-99.99,,,0.00,Acu-Link.com,2013-08-16 02:07:00,
2013-08-15 22:22:00,55.8,53.5,30.02,WNW,292,0.0,-999.0,92,-99.99,,,0.00,Acu-Link.com,2013-08-16 02:22:00,
2013-08-15 22:38:00,55.8,53.5,30.02,SSE,157,0.0,-999.0,92,-99.99,,,0.00,Acu-Link.com,2013-08-16 02:38:00,
2013-08-15 22:54:00,55.6,53.3,30.03,ENE,67,0.0,-999.0,92,-99.99,,,0.00,Acu-Link.com,2013-08-16 02:54:00,
2013-08-15 23:09:00,55.2,53.2,30.03,SW,225,0.0,-999.0,93,-99.99,,,0.00,Acu-Link.com,2013-08-16 03:09:00,
2013-08-15 23:24:00,54.3,52.3,30.04,SW,225,0.0,-999.0,93,-99.99,,,0.00,Acu-Link.com,2013-08-16 03:24:00,
2013-08-15 23:39:00,53.8,51.8,30.04,SSE,157,0.0,-999.0,93,-99.99,,,0.00,Acu-Link.com,2013-08-16 03:39:00,
2013-08-15 23:56:00,53.6,51.6,30.04,East,90,0.0,-999.0,93,-99.99,,,0.00,Acu-Link.com,2013-08-16 03:56:00,